sensor_id;sensor_type;location;lat;lon;timestamp;P1;durP1;ratioP1;P2;durP2;ratioP2
7969;SDS011;4030;52.362;9.206;2022-08-30T00:00:42;1.05;;;0.60;;
7969;SDS011;4030;52.362;9.206;2022-08-30T00:03:31;0.60;;;0.60;;
7969;SDS011;4030;52.362;9.206;2022-08-30T00:06:05;0.85;;;0.70;;
7969;SDS011;4030;52.362;9.206;2022-08-30T00:08:32;1.05;;;0.60;;
7969;SDS011;4030;52.362;9.206;2022-08-30T00:11:00;1.35;;;0.70;;
7969;SDS011;4030;52.362;9.206;2022-08-30T00:13:28;0.60;;;0.60;;
7969;SDS011;4030;52.362;9.206;2022-08-30T00:15:55;0.43;;;0.43;;
7969;SDS011;4030;52.362;9.206;2022-08-30T00:18:21;0.65;;;0.47;;
7969;SDS011;4030;52.362;9.206;2022-08-30T00:20:48;0.98;;;0.65;;
7969;SDS011;4030;52.362;9.206;2022-08-30T00:23:15;0.50;;;0.50;;
7969;SDS011;4030;52.362;9.206;2022-08-30T00:25:43;0.95;;;0.50;;
7969;SDS011;4030;52.362;9.206;2022-08-30T00:28:10;0.65;;;0.60;;
7969;SDS011;4030;52.362;9.206;2022-08-30T00:30:37;0.70;;;0.52;;
7969;SDS011;4030;52.362;9.206;2022-08-30T00:33:04;0.47;;;0.47;;
7969;SDS011;4030;52.362;9.206;2022-08-30T00:35:31;0.50;;;0.50;;
7969;SDS011;4030;52.362;9.206;2022-08-30T00:37:56;0.50;;;0.50;;
7969;SDS011;4030;52.362;9.206;2022-08-30T00:40:23;0.88;;;0.60;;
7969;SDS011;4030;52.362;9.206;2022-08-30T00:42:52;0.60;;;0.60;;
7969;SDS011;4030;52.362;9.206;2022-08-30T00:45:24;0.50;;;0.50;;
7969;SDS011;4030;52.362;9.206;2022-08-30T00:47:54;1.17;;;0.60;;
7969;SDS011;4030;52.362;9.206;2022-08-30T00:50:21;0.55;;;0.50;;
7969;SDS011;4030;52.362;9.206;2022-08-30T00:52:51;0.65;;;0.52;;
7969;SDS011;4030;52.362;9.206;2022-08-30T00:55:20;0.85;;;0.60;;
7969;SDS011;4030;52.362;9.206;2022-08-30T00:57:46;0.95;;;0.70;;
7969;SDS011;4030;52.362;9.206;2022-08-30T01:00:17;0.50;;;0.50;;
7969;SDS011;4030;52.362;9.206;2022-08-30T01:02:43;0.63;;;0.60;;
7969;SDS011;4030;52.362;9.206;2022-08-30T01:05:10;0.77;;;0.60;;
7969;SDS011;4030;52.362;9.206;2022-08-30T01:07:38;0.50;;;0.47;;
7969;SDS011;4030;52.362;9.206;2022-08-30T01:10:05;0.80;;;0.57;;
7969;SDS011;4030;52.362;9.206;2022-08-30T01:12:34;0.60;;;0.60;;
7969;SDS011;4030;52.362;9.206;2022-08-30T01:15:01;0.90;;;0.68;;
7969;SDS011;4030;52.362;9.206;2022-08-30T01:17:28;0.55;;;0.52;;
7969;SDS011;4030;52.362;9.206;2022-08-30T01:19:55;1.17;;;0.50;;
7969;SDS011;4030;52.362;9.206;2022-08-30T01:22:32;0.77;;;0.60;;
7969;SDS011;4030;52.362;9.206;2022-08-30T01:25:07;1.15;;;0.80;;
7969;SDS011;4030;52.362;9.206;2022-08-30T01:27:35;0.70;;;0.60;;
7969;SDS011;4030;52.362;9.206;2022-08-30T01:30:07;0.93;;;0.60;;
7969;SDS011;4030;52.362;9.206;2022-08-30T01:32:37;0.63;;;0.50;;
7969;SDS011;4030;52.362;9.206;2022-08-30T01:35:08;0.85;;;0.60;;
7969;SDS011;4030;52.362;9.206;2022-08-30T01:37:36;0.57;;;0.43;;
7969;SDS011;4030;52.362;9.206;2022-08-30T01:40:03;0.82;;;0.63;;
7969;SDS011;4030;52.362;9.206;2022-08-30T01:42:30;0.50;;;0.50;;
7969;SDS011;4030;52.362;9.206;2022-08-30T01:44:57;0.77;;;0.60;;
7969;SDS011;4030;52.362;9.206;2022-08-30T01:47:23;0.65;;;0.60;;
7969;SDS011;4030;52.362;9.206;2022-08-30T01:49:48;0.57;;;0.50;;
7969;SDS011;4030;52.362;9.206;2022-08-30T01:52:15;0.55;;;0.50;;
7969;SDS011;4030;52.362;9.206;2022-08-30T01:54:42;1.05;;;0.80;;
7969;SDS011;4030;52.362;9.206;2022-08-30T01:57:10;0.93;;;0.70;;
7969;SDS011;4030;52.362;9.206;2022-08-30T01:59:40;0.70;;;0.50;;
7969;SDS011;4030;52.362;9.206;2022-08-30T02:02:07;0.93;;;0.57;;
7969;SDS011;4030;52.362;9.206;2022-08-30T02:04:34;0.70;;;0.60;;
7969;SDS011;4030;52.362;9.206;2022-08-30T02:07:01;0.60;;;0.60;;
7969;SDS011;4030;52.362;9.206;2022-08-30T02:09:28;0.88;;;0.60;;
7969;SDS011;4030;52.362;9.206;2022-08-30T02:11:54;1.10;;;0.52;;
7969;SDS011;4030;52.362;9.206;2022-08-30T02:14:19;0.75;;;0.70;;
7969;SDS011;4030;52.362;9.206;2022-08-30T02:16:45;1.23;;;0.60;;
7969;SDS011;4030;52.362;9.206;2022-08-30T02:19:12;0.93;;;0.55;;
7969;SDS011;4030;52.362;9.206;2022-08-30T02:21:38;0.68;;;0.60;;
7969;SDS011;4030;52.362;9.206;2022-08-30T02:24:03;0.90;;;0.50;;
7969;SDS011;4030;52.362;9.206;2022-08-30T02:26:30;0.77;;;0.55;;
7969;SDS011;4030;52.362;9.206;2022-08-30T02:28:55;0.85;;;0.70;;
7969;SDS011;4030;52.362;9.206;2022-08-30T02:31:21;0.63;;;0.55;;
7969;SDS011;4030;52.362;9.206;2022-08-30T02:33:49;0.60;;;0.60;;
7969;SDS011;4030;52.362;9.206;2022-08-30T02:36:17;0.95;;;0.63;;
7969;SDS011;4030;52.362;9.206;2022-08-30T02:38:45;0.70;;;0.50;;
7969;SDS011;4030;52.362;9.206;2022-08-30T02:41:12;0.60;;;0.55;;
7969;SDS011;4030;52.362;9.206;2022-08-30T02:43:39;0.50;;;0.50;;
7969;SDS011;4030;52.362;9.206;2022-08-30T02:46:05;1.08;;;0.60;;
7969;SDS011;4030;52.362;9.206;2022-08-30T02:48:30;1.55;;;0.43;;
7969;SDS011;4030;52.362;9.206;2022-08-30T02:51:03;0.70;;;0.50;;
7969;SDS011;4030;52.362;9.206;2022-08-30T02:53:34;1.73;;;0.63;;
7969;SDS011;4030;52.362;9.206;2022-08-30T02:56:00;0.70;;;0.70;;
7969;SDS011;4030;52.362;9.206;2022-08-30T02:58:26;0.88;;;0.60;;
7969;SDS011;4030;52.362;9.206;2022-08-30T03:00:52;1.02;;;0.60;;
7969;SDS011;4030;52.362;9.206;2022-08-30T03:03:18;1.10;;;0.60;;
7969;SDS011;4030;52.362;9.206;2022-08-30T03:05:44;0.98;;;0.68;;
7969;SDS011;4030;52.362;9.206;2022-08-30T03:08:10;0.40;;;0.40;;
7969;SDS011;4030;52.362;9.206;2022-08-30T03:10:36;0.60;;;0.60;;
7969;SDS011;4030;52.362;9.206;2022-08-30T03:13:02;0.95;;;0.60;;
7969;SDS011;4030;52.362;9.206;2022-08-30T03:15:31;0.98;;;0.60;;
7969;SDS011;4030;52.362;9.206;2022-08-30T03:17:59;1.25;;;0.70;;
7969;SDS011;4030;52.362;9.206;2022-08-30T03:20:25;1.25;;;0.73;;
7969;SDS011;4030;52.362;9.206;2022-08-30T03:22:51;2.25;;;0.60;;
7969;SDS011;4030;52.362;9.206;2022-08-30T03:25:17;0.60;;;0.55;;
7969;SDS011;4030;52.362;9.206;2022-08-30T03:27:44;1.33;;;0.70;;
7969;SDS011;4030;52.362;9.206;2022-08-30T03:30:11;0.60;;;0.60;;
7969;SDS011;4030;52.362;9.206;2022-08-30T03:32:38;0.70;;;0.50;;
7969;SDS011;4030;52.362;9.206;2022-08-30T03:35:05;0.68;;;0.63;;
7969;SDS011;4030;52.362;9.206;2022-08-30T03:37:31;1.08;;;0.70;;
7969;SDS011;4030;52.362;9.206;2022-08-30T03:39:58;0.93;;;0.68;;
7969;SDS011;4030;52.362;9.206;2022-08-30T03:42:23;0.50;;;0.50;;
7969;SDS011;4030;52.362;9.206;2022-08-30T03:44:49;0.65;;;0.60;;
7969;SDS011;4030;52.362;9.206;2022-08-30T03:47:15;1.15;;;0.60;;
7969;SDS011;4030;52.362;9.206;2022-08-30T03:49:41;1.25;;;0.68;;
7969;SDS011;4030;52.362;9.206;2022-08-30T03:52:07;0.60;;;0.60;;
7969;SDS011;4030;52.362;9.206;2022-08-30T03:54:33;1.02;;;0.60;;
7969;SDS011;4030;52.362;9.206;2022-08-30T03:57:00;1.08;;;0.70;;
7969;SDS011;4030;52.362;9.206;2022-08-30T03:59:26;0.63;;;0.60;;
7969;SDS011;4030;52.362;9.206;2022-08-30T04:01:52;0.60;;;0.60;;
7969;SDS011;4030;52.362;9.206;2022-08-30T04:04:18;0.55;;;0.55;;
7969;SDS011;4030;52.362;9.206;2022-08-30T04:06:44;0.60;;;0.60;;
7969;SDS011;4030;52.362;9.206;2022-08-30T04:09:10;0.63;;;0.57;;
7969;SDS011;4030;52.362;9.206;2022-08-30T04:11:36;0.80;;;0.70;;
7969;SDS011;4030;52.362;9.206;2022-08-30T04:14:02;0.95;;;0.60;;
7969;SDS011;4030;52.362;9.206;2022-08-30T04:16:28;0.93;;;0.70;;
7969;SDS011;4030;52.362;9.206;2022-08-30T04:18:54;0.77;;;0.68;;
7969;SDS011;4030;52.362;9.206;2022-08-30T04:21:20;2.10;;;0.60;;
7969;SDS011;4030;52.362;9.206;2022-08-30T04:23:46;0.47;;;0.47;;
7969;SDS011;4030;52.362;9.206;2022-08-30T04:26:12;0.82;;;0.57;;
7969;SDS011;4030;52.362;9.206;2022-08-30T04:28:38;1.10;;;0.77;;
7969;SDS011;4030;52.362;9.206;2022-08-30T04:31:08;0.77;;;0.75;;
7969;SDS011;4030;52.362;9.206;2022-08-30T04:33:36;0.60;;;0.50;;
7969;SDS011;4030;52.362;9.206;2022-08-30T04:36:03;0.88;;;0.63;;
7969;SDS011;4030;52.362;9.206;2022-08-30T04:38:31;0.95;;;0.80;;
7969;SDS011;4030;52.362;9.206;2022-08-30T04:40:58;0.57;;;0.50;;
7969;SDS011;4030;52.362;9.206;2022-08-30T04:43:25;0.80;;;0.70;;
7969;SDS011;4030;52.362;9.206;2022-08-30T04:45:51;0.52;;;0.50;;
7969;SDS011;4030;52.362;9.206;2022-08-30T04:48:19;1.42;;;0.60;;
7969;SDS011;4030;52.362;9.206;2022-08-30T04:50:46;0.75;;;0.60;;
7969;SDS011;4030;52.362;9.206;2022-08-30T04:53:14;0.60;;;0.60;;
7969;SDS011;4030;52.362;9.206;2022-08-30T04:55:40;0.70;;;0.70;;
7969;SDS011;4030;52.362;9.206;2022-08-30T04:58:08;0.63;;;0.63;;
7969;SDS011;4030;52.362;9.206;2022-08-30T05:00:35;0.70;;;0.70;;
7969;SDS011;4030;52.362;9.206;2022-08-30T05:03:01;0.90;;;0.80;;
7969;SDS011;4030;52.362;9.206;2022-08-30T05:05:27;0.90;;;0.60;;
7969;SDS011;4030;52.362;9.206;2022-08-30T05:08:09;0.75;;;0.60;;
7969;SDS011;4030;52.362;9.206;2022-08-30T05:10:38;2.15;;;0.60;;
7969;SDS011;4030;52.362;9.206;2022-08-30T05:13:08;1.40;;;0.90;;
7969;SDS011;4030;52.362;9.206;2022-08-30T05:15:34;0.70;;;0.60;;
7969;SDS011;4030;52.362;9.206;2022-08-30T05:18:02;1.00;;;0.68;;
7969;SDS011;4030;52.362;9.206;2022-08-30T05:20:28;1.08;;;0.68;;
7969;SDS011;4030;52.362;9.206;2022-08-30T05:22:54;1.02;;;0.70;;
7969;SDS011;4030;52.362;9.206;2022-08-30T05:25:21;0.75;;;0.60;;
7969;SDS011;4030;52.362;9.206;2022-08-30T05:27:50;0.60;;;0.60;;
7969;SDS011;4030;52.362;9.206;2022-08-30T05:30:17;0.77;;;0.60;;
7969;SDS011;4030;52.362;9.206;2022-08-30T05:32:44;0.82;;;0.75;;
7969;SDS011;4030;52.362;9.206;2022-08-30T05:35:11;1.17;;;0.80;;
7969;SDS011;4030;52.362;9.206;2022-08-30T05:37:38;0.98;;;0.80;;
7969;SDS011;4030;52.362;9.206;2022-08-30T05:40:05;0.55;;;0.52;;
7969;SDS011;4030;52.362;9.206;2022-08-30T05:42:32;1.85;;;0.75;;
7969;SDS011;4030;52.362;9.206;2022-08-30T05:44:59;0.80;;;0.63;;
7969;SDS011;4030;52.362;9.206;2022-08-30T05:47:26;1.17;;;0.80;;
7969;SDS011;4030;52.362;9.206;2022-08-30T05:49:51;0.88;;;0.80;;
7969;SDS011;4030;52.362;9.206;2022-08-30T05:52:17;1.20;;;0.73;;
7969;SDS011;4030;52.362;9.206;2022-08-30T05:54:43;1.00;;;0.70;;
7969;SDS011;4030;52.362;9.206;2022-08-30T05:57:10;1.02;;;0.70;;
7969;SDS011;4030;52.362;9.206;2022-08-30T05:59:36;1.67;;;0.85;;
7969;SDS011;4030;52.362;9.206;2022-08-30T06:02:02;1.20;;;0.70;;
7969;SDS011;4030;52.362;9.206;2022-08-30T06:04:28;1.13;;;0.80;;
7969;SDS011;4030;52.362;9.206;2022-08-30T06:06:54;0.90;;;0.85;;
7969;SDS011;4030;52.362;9.206;2022-08-30T06:09:21;0.77;;;0.70;;
7969;SDS011;4030;52.362;9.206;2022-08-30T06:11:47;1.00;;;0.85;;
7969;SDS011;4030;52.362;9.206;2022-08-30T06:14:13;1.35;;;0.88;;
7969;SDS011;4030;52.362;9.206;2022-08-30T06:16:39;1.33;;;0.90;;
7969;SDS011;4030;52.362;9.206;2022-08-30T06:19:06;1.10;;;0.80;;
7969;SDS011;4030;52.362;9.206;2022-08-30T06:21:35;1.00;;;0.90;;
7969;SDS011;4030;52.362;9.206;2022-08-30T06:24:02;2.35;;;0.80;;
7969;SDS011;4030;52.362;9.206;2022-08-30T06:26:30;1.15;;;0.77;;
7969;SDS011;4030;52.362;9.206;2022-08-30T06:28:57;0.70;;;0.70;;
7969;SDS011;4030;52.362;9.206;2022-08-30T06:31:23;0.90;;;0.85;;
7969;SDS011;4030;52.362;9.206;2022-08-30T06:33:50;1.25;;;0.70;;
7969;SDS011;4030;52.362;9.206;2022-08-30T06:36:17;1.65;;;0.98;;
7969;SDS011;4030;52.362;9.206;2022-08-30T06:38:50;1.08;;;0.80;;
7969;SDS011;4030;52.362;9.206;2022-08-30T06:41:20;2.15;;;0.80;;
7969;SDS011;4030;52.362;9.206;2022-08-30T06:43:50;0.90;;;0.65;;
7969;SDS011;4030;52.362;9.206;2022-08-30T06:46:18;1.08;;;0.80;;
7969;SDS011;4030;52.362;9.206;2022-08-30T06:49:04;0.95;;;0.68;;
7969;SDS011;4030;52.362;9.206;2022-08-30T06:51:32;1.55;;;0.77;;
7969;SDS011;4030;52.362;9.206;2022-08-30T06:54:01;1.20;;;0.90;;
7969;SDS011;4030;52.362;9.206;2022-08-30T06:56:29;1.20;;;0.85;;
7969;SDS011;4030;52.362;9.206;2022-08-30T06:58:55;1.98;;;0.80;;
7969;SDS011;4030;52.362;9.206;2022-08-30T07:01:22;0.85;;;0.70;;
7969;SDS011;4030;52.362;9.206;2022-08-30T07:03:50;0.85;;;0.70;;
7969;SDS011;4030;52.362;9.206;2022-08-30T07:06:16;0.80;;;0.80;;
7969;SDS011;4030;52.362;9.206;2022-08-30T07:08:43;1.10;;;0.70;;
7969;SDS011;4030;52.362;9.206;2022-08-30T07:11:09;0.70;;;0.70;;
7969;SDS011;4030;52.362;9.206;2022-08-30T07:13:36;0.68;;;0.68;;
7969;SDS011;4030;52.362;9.206;2022-08-30T07:16:11;0.65;;;0.60;;
7969;SDS011;4030;52.362;9.206;2022-08-30T07:18:38;1.17;;;0.70;;
7969;SDS011;4030;52.362;9.206;2022-08-30T07:21:23;0.60;;;0.60;;
7969;SDS011;4030;52.362;9.206;2022-08-30T07:23:54;0.60;;;0.60;;
7969;SDS011;4030;52.362;9.206;2022-08-30T07:26:24;0.82;;;0.82;;
7969;SDS011;4030;52.362;9.206;2022-08-30T07:29:00;0.70;;;0.70;;
7969;SDS011;4030;52.362;9.206;2022-08-30T07:31:26;0.63;;;0.60;;
7969;SDS011;4030;52.362;9.206;2022-08-30T07:33:52;0.70;;;0.70;;
7969;SDS011;4030;52.362;9.206;2022-08-30T07:36:19;0.73;;;0.70;;
7969;SDS011;4030;52.362;9.206;2022-08-30T07:38:46;0.60;;;0.60;;
7969;SDS011;4030;52.362;9.206;2022-08-30T07:41:16;0.40;;;0.40;;
7969;SDS011;4030;52.362;9.206;2022-08-30T07:43:54;0.50;;;0.50;;
7969;SDS011;4030;52.362;9.206;2022-08-30T07:46:21;0.40;;;0.40;;
7969;SDS011;4030;52.362;9.206;2022-08-30T07:48:47;0.50;;;0.50;;
7969;SDS011;4030;52.362;9.206;2022-08-30T07:51:15;0.40;;;0.40;;
7969;SDS011;4030;52.362;9.206;2022-08-30T07:53:43;0.50;;;0.50;;
7969;SDS011;4030;52.362;9.206;2022-08-30T07:56:09;0.70;;;0.70;;
7969;SDS011;4030;52.362;9.206;2022-08-30T07:58:35;0.50;;;0.50;;
7969;SDS011;4030;52.362;9.206;2022-08-30T08:01:04;0.55;;;0.55;;
7969;SDS011;4030;52.362;9.206;2022-08-30T08:03:31;1.20;;;0.73;;
7969;SDS011;4030;52.362;9.206;2022-08-30T08:05:59;0.95;;;0.75;;
7969;SDS011;4030;52.362;9.206;2022-08-30T08:08:27;0.52;;;0.52;;
7969;SDS011;4030;52.362;9.206;2022-08-30T08:10:54;0.57;;;0.57;;
7969;SDS011;4030;52.362;9.206;2022-08-30T08:13:19;0.55;;;0.55;;
7969;SDS011;4030;52.362;9.206;2022-08-30T08:15:47;0.75;;;0.60;;
7969;SDS011;4030;52.362;9.206;2022-08-30T08:18:12;0.75;;;0.60;;
7969;SDS011;4030;52.362;9.206;2022-08-30T08:20:38;0.95;;;0.75;;
7969;SDS011;4030;52.362;9.206;2022-08-30T08:23:04;0.95;;;0.90;;
7969;SDS011;4030;52.362;9.206;2022-08-30T08:25:30;0.82;;;0.70;;
7969;SDS011;4030;52.362;9.206;2022-08-30T08:27:56;0.88;;;0.80;;
7969;SDS011;4030;52.362;9.206;2022-08-30T08:30:22;1.15;;;1.00;;
7969;SDS011;4030;52.362;9.206;2022-08-30T08:32:48;1.40;;;0.90;;
7969;SDS011;4030;52.362;9.206;2022-08-30T08:35:15;1.15;;;1.10;;
7969;SDS011;4030;52.362;9.206;2022-08-30T08:37:41;1.48;;;1.23;;
7969;SDS011;4030;52.362;9.206;2022-08-30T08:40:08;0.90;;;0.90;;
7969;SDS011;4030;52.362;9.206;2022-08-30T08:42:56;1.40;;;1.30;;
7969;SDS011;4030;52.362;9.206;2022-08-30T08:45:45;1.73;;;1.20;;
7969;SDS011;4030;52.362;9.206;2022-08-30T08:48:39;2.35;;;1.40;;
7969;SDS011;4030;52.362;9.206;2022-08-30T08:51:13;1.50;;;1.40;;
7969;SDS011;4030;52.362;9.206;2022-08-30T08:54:07;1.60;;;1.50;;
7969;SDS011;4030;52.362;9.206;2022-08-30T08:56:48;1.45;;;1.35;;
7969;SDS011;4030;52.362;9.206;2022-08-30T08:59:15;1.83;;;1.63;;
7969;SDS011;4030;52.362;9.206;2022-08-30T09:01:42;2.22;;;1.58;;
7969;SDS011;4030;52.362;9.206;2022-08-30T09:04:09;1.70;;;1.60;;
7969;SDS011;4030;52.362;9.206;2022-08-30T09:06:49;2.20;;;2.00;;
7969;SDS011;4030;52.362;9.206;2022-08-30T09:09:37;1.88;;;1.73;;
7969;SDS011;4030;52.362;9.206;2022-08-30T09:12:05;1.70;;;1.50;;
7969;SDS011;4030;52.362;9.206;2022-08-30T09:14:35;2.10;;;1.90;;
7969;SDS011;4030;52.362;9.206;2022-08-30T09:17:06;1.80;;;1.70;;
7969;SDS011;4030;52.362;9.206;2022-08-30T09:25:05;1.67;;;1.55;;
7969;SDS011;4030;52.362;9.206;2022-08-30T09:27:36;1.70;;;1.52;;
7969;SDS011;4030;52.362;9.206;2022-08-30T09:30:05;1.70;;;1.60;;
7969;SDS011;4030;52.362;9.206;2022-08-30T09:32:33;1.65;;;1.50;;
7969;SDS011;4030;52.362;9.206;2022-08-30T09:35:06;1.58;;;1.35;;
7969;SDS011;4030;52.362;9.206;2022-08-30T09:37:44;1.65;;;1.55;;
7969;SDS011;4030;52.362;9.206;2022-08-30T09:40:32;1.55;;;1.45;;
7969;SDS011;4030;52.362;9.206;2022-08-30T09:43:05;3.40;;;1.70;;
7969;SDS011;4030;52.362;9.206;2022-08-30T09:45:35;1.70;;;1.60;;
7969;SDS011;4030;52.362;9.206;2022-08-30T09:48:26;2.05;;;1.60;;
7969;SDS011;4030;52.362;9.206;2022-08-30T09:54:01;1.75;;;1.50;;
7969;SDS011;4030;52.362;9.206;2022-08-30T10:02:05;1.77;;;1.67;;
7969;SDS011;4030;52.362;9.206;2022-08-30T10:04:46;1.85;;;1.75;;
7969;SDS011;4030;52.362;9.206;2022-08-30T10:07:23;1.95;;;1.75;;
7969;SDS011;4030;52.362;9.206;2022-08-30T10:10:10;1.83;;;1.73;;
7969;SDS011;4030;52.362;9.206;2022-08-30T10:12:59;2.28;;;2.05;;
7969;SDS011;4030;52.362;9.206;2022-08-30T10:15:37;2.58;;;2.22;;
7969;SDS011;4030;52.362;9.206;2022-08-30T10:18:20;2.30;;;2.10;;
7969;SDS011;4030;52.362;9.206;2022-08-30T10:21:20;2.20;;;2.00;;
7969;SDS011;4030;52.362;9.206;2022-08-30T10:23:55;2.20;;;2.00;;
7969;SDS011;4030;52.362;9.206;2022-08-30T10:30:02;2.40;;;2.20;;
7969;SDS011;4030;52.362;9.206;2022-08-30T10:32:33;2.80;;;2.55;;
7969;SDS011;4030;52.362;9.206;2022-08-30T10:35:12;2.35;;;2.15;;
7969;SDS011;4030;52.362;9.206;2022-08-30T10:37:50;2.40;;;2.20;;
7969;SDS011;4030;52.362;9.206;2022-08-30T10:40:31;2.40;;;2.20;;
7969;SDS011;4030;52.362;9.206;2022-08-30T10:46:19;15.07;;;3.53;;
7969;SDS011;4030;52.362;9.206;2022-08-30T10:48:52;12.45;;;3.22;;
7969;SDS011;4030;52.362;9.206;2022-08-30T10:51:22;4.85;;;2.90;;
7969;SDS011;4030;52.362;9.206;2022-08-30T10:54:03;9.45;;;2.63;;
7969;SDS011;4030;52.362;9.206;2022-08-30T10:56:42;3.67;;;2.58;;
7969;SDS011;4030;52.362;9.206;2022-08-30T10:59:09;4.88;;;2.78;;
7969;SDS011;4030;52.362;9.206;2022-08-30T11:01:59;2.78;;;2.58;;
7969;SDS011;4030;52.362;9.206;2022-08-30T11:05:02;3.22;;;2.92;;
7969;SDS011;4030;52.362;9.206;2022-08-30T11:11:05;3.45;;;3.17;;
7969;SDS011;4030;52.362;9.206;2022-08-30T11:13:39;3.63;;;3.33;;
7969;SDS011;4030;52.362;9.206;2022-08-30T11:16:08;3.60;;;3.30;;
7969;SDS011;4030;52.362;9.206;2022-08-30T11:18:53;4.28;;;3.63;;
7969;SDS011;4030;52.362;9.206;2022-08-30T11:21:40;3.25;;;3.03;;
7969;SDS011;4030;52.362;9.206;2022-08-30T11:24:08;4.63;;;2.97;;
7969;SDS011;4030;52.362;9.206;2022-08-30T11:26:52;4.05;;;2.83;;
7969;SDS011;4030;52.362;9.206;2022-08-30T11:31:54;3.40;;;3.00;;
7969;SDS011;4030;52.362;9.206;2022-08-30T11:34:52;3.63;;;2.75;;
7969;SDS011;4030;52.362;9.206;2022-08-30T11:37:30;5.43;;;2.90;;
7969;SDS011;4030;52.362;9.206;2022-08-30T11:40:07;2.90;;;2.60;;
7969;SDS011;4030;52.362;9.206;2022-08-30T11:42:52;3.17;;;2.88;;
7969;SDS011;4030;52.362;9.206;2022-08-30T11:47:49;3.30;;;2.50;;
7969;SDS011;4030;52.362;9.206;2022-08-30T11:55:52;2.20;;;2.00;;
7969;SDS011;4030;52.362;9.206;2022-08-30T12:04:02;2.50;;;1.90;;
7969;SDS011;4030;52.362;9.206;2022-08-30T12:09:07;2.47;;;2.00;;
7969;SDS011;4030;52.362;9.206;2022-08-30T12:14:05;4.10;;;2.00;;
7969;SDS011;4030;52.362;9.206;2022-08-30T12:16:35;4.15;;;1.60;;
7969;SDS011;4030;52.362;9.206;2022-08-30T12:19:28;1.75;;;1.60;;
7969;SDS011;4030;52.362;9.206;2022-08-30T12:21:58;2.22;;;1.30;;
7969;SDS011;4030;52.362;9.206;2022-08-30T12:24:37;1.33;;;1.20;;
7969;SDS011;4030;52.362;9.206;2022-08-30T12:29:52;1.50;;;1.33;;
7969;SDS011;4030;52.362;9.206;2022-08-30T12:32:21;2.25;;;1.25;;
7969;SDS011;4030;52.362;9.206;2022-08-30T12:34:51;1.60;;;1.20;;
7969;SDS011;4030;52.362;9.206;2022-08-30T12:37:25;1.40;;;1.17;;
7969;SDS011;4030;52.362;9.206;2022-08-30T12:42:36;2.72;;;1.20;;
7969;SDS011;4030;52.362;9.206;2022-08-30T12:45:15;1.33;;;1.23;;
7969;SDS011;4030;52.362;9.206;2022-08-30T12:50:22;1.88;;;1.33;;
7969;SDS011;4030;52.362;9.206;2022-08-30T12:53:03;2.25;;;1.33;;
7969;SDS011;4030;52.362;9.206;2022-08-30T12:55:34;1.98;;;1.30;;
7969;SDS011;4030;52.362;9.206;2022-08-30T12:58:31;1.75;;;1.27;;
7969;SDS011;4030;52.362;9.206;2022-08-30T13:04:12;2.13;;;1.20;;
7969;SDS011;4030;52.362;9.206;2022-08-30T13:06:52;1.60;;;1.30;;
7969;SDS011;4030;52.362;9.206;2022-08-30T13:11:58;1.23;;;1.10;;
7969;SDS011;4030;52.362;9.206;2022-08-30T13:14:39;2.17;;;1.20;;
7969;SDS011;4030;52.362;9.206;2022-08-30T13:22:37;1.85;;;1.02;;
7969;SDS011;4030;52.362;9.206;2022-08-30T13:25:07;0.75;;;0.75;;
7969;SDS011;4030;52.362;9.206;2022-08-30T13:27:35;0.85;;;0.85;;
7969;SDS011;4030;52.362;9.206;2022-08-30T13:30:06;0.80;;;0.80;;
7969;SDS011;4030;52.362;9.206;2022-08-30T13:32:36;1.00;;;0.88;;
7969;SDS011;4030;52.362;9.206;2022-08-30T13:35:03;1.70;;;0.98;;
7969;SDS011;4030;52.362;9.206;2022-08-30T13:37:29;1.67;;;0.90;;
7969;SDS011;4030;52.362;9.206;2022-08-30T13:39:56;3.75;;;1.08;;
7969;SDS011;4030;52.362;9.206;2022-08-30T13:42:22;2.45;;;1.20;;
7969;SDS011;4030;52.362;9.206;2022-08-30T13:44:48;2.58;;;1.10;;
7969;SDS011;4030;52.362;9.206;2022-08-30T13:47:14;2.00;;;1.00;;
7969;SDS011;4030;52.362;9.206;2022-08-30T13:49:41;1.52;;;1.13;;
7969;SDS011;4030;52.362;9.206;2022-08-30T13:52:09;1.20;;;1.10;;
7969;SDS011;4030;52.362;9.206;2022-08-30T13:54:38;1.48;;;1.38;;
7969;SDS011;4030;52.362;9.206;2022-08-30T13:57:04;1.40;;;1.17;;
7969;SDS011;4030;52.362;9.206;2022-08-30T13:59:29;1.38;;;1.20;;
7969;SDS011;4030;52.362;9.206;2022-08-30T14:01:59;1.60;;;1.30;;
7969;SDS011;4030;52.362;9.206;2022-08-30T14:04:25;1.20;;;1.10;;
7969;SDS011;4030;52.362;9.206;2022-08-30T14:06:51;1.55;;;1.45;;
7969;SDS011;4030;52.362;9.206;2022-08-30T14:09:17;1.60;;;1.50;;
7969;SDS011;4030;52.362;9.206;2022-08-30T14:11:43;1.55;;;1.45;;
7969;SDS011;4030;52.362;9.206;2022-08-30T14:14:09;1.48;;;1.38;;
7969;SDS011;4030;52.362;9.206;2022-08-30T14:16:36;1.50;;;1.40;;
7969;SDS011;4030;52.362;9.206;2022-08-30T14:19:06;1.45;;;1.35;;
7969;SDS011;4030;52.362;9.206;2022-08-30T14:21:32;1.33;;;1.23;;
7969;SDS011;4030;52.362;9.206;2022-08-30T14:23:59;1.67;;;1.40;;
7969;SDS011;4030;52.362;9.206;2022-08-30T14:26:26;2.35;;;1.50;;
7969;SDS011;4030;52.362;9.206;2022-08-30T14:28:55;1.80;;;1.60;;
7969;SDS011;4030;52.362;9.206;2022-08-30T14:31:21;1.80;;;1.40;;
7969;SDS011;4030;52.362;9.206;2022-08-30T14:33:48;1.60;;;1.50;;
7969;SDS011;4030;52.362;9.206;2022-08-30T14:36:14;1.30;;;1.20;;
7969;SDS011;4030;52.362;9.206;2022-08-30T14:38:40;1.50;;;1.20;;
7969;SDS011;4030;52.362;9.206;2022-08-30T14:41:06;1.50;;;1.25;;
7969;SDS011;4030;52.362;9.206;2022-08-30T14:43:33;1.63;;;1.27;;
7969;SDS011;4030;52.362;9.206;2022-08-30T14:45:59;1.33;;;1.23;;
7969;SDS011;4030;52.362;9.206;2022-08-30T14:48:25;1.30;;;1.20;;
7969;SDS011;4030;52.362;9.206;2022-08-30T14:50:51;1.65;;;1.20;;
7969;SDS011;4030;52.362;9.206;2022-08-30T14:53:17;1.17;;;1.10;;
7969;SDS011;4030;52.362;9.206;2022-08-30T14:55:43;2.05;;;1.48;;
7969;SDS011;4030;52.362;9.206;2022-08-30T14:58:09;1.40;;;1.30;;
7969;SDS011;4030;52.362;9.206;2022-08-30T15:00:35;1.38;;;1.20;;
7969;SDS011;4030;52.362;9.206;2022-08-30T15:03:02;1.30;;;1.20;;
7969;SDS011;4030;52.362;9.206;2022-08-30T15:05:28;1.10;;;1.00;;
7969;SDS011;4030;52.362;9.206;2022-08-30T15:07:56;1.30;;;1.10;;
7969;SDS011;4030;52.362;9.206;2022-08-30T15:10:22;1.40;;;1.23;;
7969;SDS011;4030;52.362;9.206;2022-08-30T15:12:48;1.20;;;1.10;;
7969;SDS011;4030;52.362;9.206;2022-08-30T15:15:17;1.30;;;1.20;;
7969;SDS011;4030;52.362;9.206;2022-08-30T15:17:47;1.33;;;1.20;;
7969;SDS011;4030;52.362;9.206;2022-08-30T15:20:14;1.45;;;1.23;;
7969;SDS011;4030;52.362;9.206;2022-08-30T15:22:43;1.55;;;1.20;;
7969;SDS011;4030;52.362;9.206;2022-08-30T15:25:09;1.42;;;1.10;;
7969;SDS011;4030;52.362;9.206;2022-08-30T15:27:34;1.30;;;1.20;;
7969;SDS011;4030;52.362;9.206;2022-08-30T15:30:00;1.20;;;1.08;;
7969;SDS011;4030;52.362;9.206;2022-08-30T15:32:28;1.73;;;1.10;;
7969;SDS011;4030;52.362;9.206;2022-08-30T15:34:54;1.20;;;1.10;;
7969;SDS011;4030;52.362;9.206;2022-08-30T15:37:19;1.20;;;1.10;;
7969;SDS011;4030;52.362;9.206;2022-08-30T15:39:47;1.25;;;0.93;;
7969;SDS011;4030;52.362;9.206;2022-08-30T15:42:13;1.00;;;1.00;;
7969;SDS011;4030;52.362;9.206;2022-08-30T15:44:40;1.30;;;1.20;;
7969;SDS011;4030;52.362;9.206;2022-08-30T15:47:05;1.60;;;1.20;;
7969;SDS011;4030;52.362;9.206;2022-08-30T15:49:31;1.20;;;1.10;;
7969;SDS011;4030;52.362;9.206;2022-08-30T15:52:02;1.30;;;1.17;;
7969;SDS011;4030;52.362;9.206;2022-08-30T15:54:28;1.20;;;1.00;;
7969;SDS011;4030;52.362;9.206;2022-08-30T15:56:55;2.15;;;1.10;;
7969;SDS011;4030;52.362;9.206;2022-08-30T15:59:24;1.40;;;1.17;;
7969;SDS011;4030;52.362;9.206;2022-08-30T16:01:54;1.35;;;1.02;;
7969;SDS011;4030;52.362;9.206;2022-08-30T16:04:21;2.83;;;1.10;;
7969;SDS011;4030;52.362;9.206;2022-08-30T16:06:46;1.13;;;0.90;;
7969;SDS011;4030;52.362;9.206;2022-08-30T16:09:13;1.38;;;0.90;;
7969;SDS011;4030;52.362;9.206;2022-08-30T16:11:39;1.10;;;0.70;;
7969;SDS011;4030;52.362;9.206;2022-08-30T16:14:06;0.68;;;0.60;;
7969;SDS011;4030;52.362;9.206;2022-08-30T16:16:33;1.42;;;0.70;;
7969;SDS011;4030;52.362;9.206;2022-08-30T16:19:01;2.45;;;0.70;;
7969;SDS011;4030;52.362;9.206;2022-08-30T16:21:28;0.75;;;0.70;;
7969;SDS011;4030;52.362;9.206;2022-08-30T16:23:56;1.05;;;0.70;;
7969;SDS011;4030;52.362;9.206;2022-08-30T16:26:24;1.27;;;0.88;;
7969;SDS011;4030;52.362;9.206;2022-08-30T16:28:51;2.35;;;0.80;;
7969;SDS011;4030;52.362;9.206;2022-08-30T16:31:18;2.35;;;0.88;;
7969;SDS011;4030;52.362;9.206;2022-08-30T16:33:44;1.48;;;0.70;;